Rock Point, Arizona
Current Conditions -  °F | °C
As of 3:53 AM on Saturday 25 Oct 2014 (Local Time) from KRQE Reporting Station
Clear Clear  
Wind Chill: 35°   Ceiling: Unl
Heat Index: 35°   Visibility: 10mi
Dew Point: 24°   Wind: 0mph
Humidity: 64%   Direction: NA
Pressure: 30.37"   Gusts: NA
Location:  36.15°N, 109.55°W
Report Text: KRQE 250953Z AUTO 00000KT 10SM CLR 02/M04 A3037 RMK AO2 SLP201 T00171044 TSNO
Loading
Personal Weather Stations






























Interactive Weather Map
Tropical Storm Tracking
New forecast layout! Learn more

10-Day Weather Forecast

Advertisements
Track Severe Weather on mobile